sensor_id;sensor_type;location;lat;lon;timestamp;pressure;altitude;pressure_sealevel;temperature;humidity
61571;BME280;47463;49.884;10.010;2023-03-25T00:00:01;101040;;;8.3;89
61571;BME280;47463;49.884;10.010;2023-03-25T00:05:01;101040;;;8.3;88
61571;BME280;47463;49.884;10.010;2023-03-25T00:10:01;101040;;;8.3;89
61571;BME280;47463;49.884;10.010;2023-03-25T00:15:01;101030;;;8.3;89
61571;BME280;47463;49.884;10.010;2023-03-25T00:20:01;101030;;;8.2;89
61571;BME280;47463;49.884;10.010;2023-03-25T00:25:01;101050;;;8.1;90
61571;BME280;47463;49.884;10.010;2023-03-25T00:30:01;101050;;;8.1;91
61571;BME280;47463;49.884;10.010;2023-03-25T00:35:01;101050;;;8.1;91
61571;BME280;47463;49.884;10.010;2023-03-25T00:40:01;101030;;;8.2;90
61571;BME280;47463;49.884;10.010;2023-03-25T00:45:01;101020;;;8.2;90
61571;BME280;47463;49.884;10.010;2023-03-25T00:50:01;101020;;;8.2;89
61571;BME280;47463;49.884;10.010;2023-03-25T00:55:01;101010;;;8.1;89
61571;BME280;47463;49.884;10.010;2023-03-25T01:00:01;100990;;;8;89
61571;BME280;47463;49.884;10.010;2023-03-25T01:05:01;100990;;;8;88
61571;BME280;47463;49.884;10.010;2023-03-25T01:10:01;101000;;;8;87
61571;BME280;47463;49.884;10.010;2023-03-25T01:15:01;100990;;;8;87
61571;BME280;47463;49.884;10.010;2023-03-25T01:20:01;100990;;;8;87
61571;BME280;47463;49.884;10.010;2023-03-25T01:25:01;100980;;;8.1;87
61571;BME280;47463;49.884;10.010;2023-03-25T01:30:01;100980;;;8.2;87
61571;BME280;47463;49.884;10.010;2023-03-25T01:35:01;100980;;;8.2;86
61571;BME280;47463;49.884;10.010;2023-03-25T01:40:01;100970;;;8.1;87
61571;BME280;47463;49.884;10.010;2023-03-25T01:45:32;100980;;;8.1;87
61571;BME280;47463;49.884;10.010;2023-03-25T01:50:01;100980;;;8.1;87
61571;BME280;47463;49.884;10.010;2023-03-25T01:55:01;101000;;;8.1;87
61571;BME280;47463;49.884;10.010;2023-03-25T02:00:01;101000;;;8;87
61571;BME280;47463;49.884;10.010;2023-03-25T02:05:01;101000;;;8;86
61571;BME280;47463;49.884;10.010;2023-03-25T02:10:01;101000;;;8;86
61571;BME280;47463;49.884;10.010;2023-03-25T02:15:01;101000;;;7.9;86
61571;BME280;47463;49.884;10.010;2023-03-25T02:25:23;101010;;;7.8;85
61571;BME280;47463;49.884;10.010;2023-03-25T02:30:08;101020;;;7.8;85
61571;BME280;47463;49.884;10.010;2023-03-25T02:35:03;101010;;;7.5;85
61571;BME280;47463;49.884;10.010;2023-03-25T02:40:01;101000;;;7.4;85
61571;BME280;47463;49.884;10.010;2023-03-25T02:45:01;101000;;;7.3;86
61571;BME280;47463;49.884;10.010;2023-03-25T02:50:02;100990;;;7.3;85
61571;BME280;47463;49.884;10.010;2023-03-25T02:55:01;101000;;;7.4;85
61571;BME280;47463;49.884;10.010;2023-03-25T03:00:01;101000;;;7.4;85
61571;BME280;47463;49.884;10.010;2023-03-25T03:05:01;101000;;;7.3;86
61571;BME280;47463;49.884;10.010;2023-03-25T03:10:03;101000;;;7.3;86
61571;BME280;47463;49.884;10.010;2023-03-25T03:15:04;101000;;;7.3;86
61571;BME280;47463;49.884;10.010;2023-03-25T03:20:02;101000;;;7.2;87
61571;BME280;47463;49.884;10.010;2023-03-25T03:25:01;101000;;;7.1;88
61571;BME280;47463;49.884;10.010;2023-03-25T03:30:02;101000;;;7;89
61571;BME280;47463;49.884;10.010;2023-03-25T03:35:01;101010;;;6.9;90
61571;BME280;47463;49.884;10.010;2023-03-25T03:40:01;101010;;;6.9;89
61571;BME280;47463;49.884;10.010;2023-03-25T03:45:02;101040;;;6.7;88
61571;BME280;47463;49.884;10.010;2023-03-25T03:50:02;100990;;;6.7;87
61571;BME280;47463;49.884;10.010;2023-03-25T03:55:02;101000;;;6.6;87
61571;BME280;47463;49.884;10.010;2023-03-25T04:00:01;101000;;;6.6;87
61571;BME280;47463;49.884;10.010;2023-03-25T04:05:01;100990;;;6.5;87
61571;BME280;47463;49.884;10.010;2023-03-25T04:10:02;100990;;;6.4;87
61571;BME280;47463;49.884;10.010;2023-03-25T04:15:01;101020;;;6.3;88
61571;BME280;47463;49.884;10.010;2023-03-25T04:20:01;101030;;;6.3;88
61571;BME280;47463;49.884;10.010;2023-03-25T04:25:01;101040;;;6.3;88
61571;BME280;47463;49.884;10.010;2023-03-25T04:30:01;101040;;;6.2;88
61571;BME280;47463;49.884;10.010;2023-03-25T04:35:01;101060;;;6.2;88
61571;BME280;47463;49.884;10.010;2023-03-25T04:40:01;101060;;;6.3;87
61571;BME280;47463;49.884;10.010;2023-03-25T04:45:01;101070;;;6.4;87
61571;BME280;47463;49.884;10.010;2023-03-25T04:50:01;101070;;;6.4;87
61571;BME280;47463;49.884;10.010;2023-03-25T04:55:01;101070;;;6.4;87
61571;BME280;47463;49.884;10.010;2023-03-25T05:00:01;101070;;;6.4;87
61571;BME280;47463;49.884;10.010;2023-03-25T05:05:01;101070;;;6.5;86
61571;BME280;47463;49.884;10.010;2023-03-25T05:10:01;101070;;;6.7;85
61571;BME280;47463;49.884;10.010;2023-03-25T05:15:01;101060;;;6.7;85
61571;BME280;47463;49.884;10.010;2023-03-25T05:20:01;101070;;;6.7;85
61571;BME280;47463;49.884;10.010;2023-03-25T05:25:01;101080;;;6.7;85
61571;BME280;47463;49.884;10.010;2023-03-25T05:30:01;101060;;;6.7;85
61571;BME280;47463;49.884;10.010;2023-03-25T05:35:01;101070;;;6.6;84
61571;BME280;47463;49.884;10.010;2023-03-25T05:40:01;101080;;;6.5;84
61571;BME280;47463;49.884;10.010;2023-03-25T05:45:01;101090;;;6.6;84
61571;BME280;47463;49.884;10.010;2023-03-25T05:50:01;101090;;;6.7;84
61571;BME280;47463;49.884;10.010;2023-03-25T05:55:01;101090;;;6.7;84
61571;BME280;47463;49.884;10.010;2023-03-25T06:00:01;101110;;;6.8;83
61571;BME280;47463;49.884;10.010;2023-03-25T06:05:01;101100;;;6.8;83
61571;BME280;47463;49.884;10.010;2023-03-25T06:10:01;101100;;;6.7;83
61571;BME280;47463;49.884;10.010;2023-03-25T06:15:01;101120;;;6.7;84
61571;BME280;47463;49.884;10.010;2023-03-25T06:20:01;101120;;;6.8;84
61571;BME280;47463;49.884;10.010;2023-03-25T06:25:01;101120;;;6.9;83
61571;BME280;47463;49.884;10.010;2023-03-25T06:30:01;101110;;;6.9;84
61571;BME280;47463;49.884;10.010;2023-03-25T06:35:01;101120;;;6.7;85
61571;BME280;47463;49.884;10.010;2023-03-25T06:40:01;101120;;;6.6;86
61571;BME280;47463;49.884;10.010;2023-03-25T06:45:01;101130;;;6.4;87
61571;BME280;47463;49.884;10.010;2023-03-25T06:50:01;101130;;;6.4;87
61571;BME280;47463;49.884;10.010;2023-03-25T06:55:01;101140;;;6.4;88
61571;BME280;47463;49.884;10.010;2023-03-25T07:00:01;101140;;;6.3;89
61571;BME280;47463;49.884;10.010;2023-03-25T07:05:01;101150;;;6.4;89
61571;BME280;47463;49.884;10.010;2023-03-25T07:10:01;101150;;;6.5;89
61571;BME280;47463;49.884;10.010;2023-03-25T07:15:01;101160;;;6.6;88
61571;BME280;47463;49.884;10.010;2023-03-25T07:20:01;101150;;;6.7;88
61571;BME280;47463;49.884;10.010;2023-03-25T07:25:01;101160;;;6.8;88
61571;BME280;47463;49.884;10.010;2023-03-25T07:30:01;101160;;;6.9;88
61571;BME280;47463;49.884;10.010;2023-03-25T07:35:01;101160;;;7.1;87
61571;BME280;47463;49.884;10.010;2023-03-25T07:40:01;101160;;;7.4;86
61571;BME280;47463;49.884;10.010;2023-03-25T07:45:01;101150;;;7.5;84
61571;BME280;47463;49.884;10.010;2023-03-25T07:50:01;101150;;;7.5;83
61571;BME280;47463;49.884;10.010;2023-03-25T07:55:01;101160;;;7.4;83
61571;BME280;47463;49.884;10.010;2023-03-25T08:00:01;101160;;;7.2;84
61571;BME280;47463;49.884;10.010;2023-03-25T08:05:01;101170;;;7.6;84
61571;BME280;47463;49.884;10.010;2023-03-25T08:10:01;101170;;;8;83
61571;BME280;47463;49.884;10.010;2023-03-25T08:15:01;101160;;;8.3;82
61571;BME280;47463;49.884;10.010;2023-03-25T08:20:01;101150;;;8.5;81
61571;BME280;47463;49.884;10.010;2023-03-25T08:25:01;101150;;;8.7;80
61571;BME280;47463;49.884;10.010;2023-03-25T08:30:01;101150;;;8.8;79
61571;BME280;47463;49.884;10.010;2023-03-25T08:35:01;101150;;;8.7;78
61571;BME280;47463;49.884;10.010;2023-03-25T08:40:01;101150;;;8.9;78
61571;BME280;47463;49.884;10.010;2023-03-25T08:45:01;101160;;;8.7;77
61571;BME280;47463;49.884;10.010;2023-03-25T08:50:01;101160;;;8.6;77
61571;BME280;47463;49.884;10.010;2023-03-25T08:55:01;101150;;;8.6;77
61571;BME280;47463;49.884;10.010;2023-03-25T09:00:01;101140;;;8.7;76
61571;BME280;47463;49.884;10.010;2023-03-25T09:05:01;101140;;;9;75
61571;BME280;47463;49.884;10.010;2023-03-25T09:10:01;101140;;;9.5;74
61571;BME280;47463;49.884;10.010;2023-03-25T09:15:01;101130;;;9.7;72
61571;BME280;47463;49.884;10.010;2023-03-25T09:20:01;101130;;;9.6;70
61571;BME280;47463;49.884;10.010;2023-03-25T09:25:01;101150;;;9.6;70
61571;BME280;47463;49.884;10.010;2023-03-25T09:30:01;101140;;;9.5;68
61571;BME280;47463;49.884;10.010;2023-03-25T09:35:01;101150;;;9.5;69
61571;BME280;47463;49.884;10.010;2023-03-25T09:40:01;101140;;;9.6;69
61571;BME280;47463;49.884;10.010;2023-03-25T09:45:03;101140;;;9.6;70
61571;BME280;47463;49.884;10.010;2023-03-25T09:50:02;101130;;;10.1;68
61571;BME280;47463;49.884;10.010;2023-03-25T09:55:02;101130;;;9.7;67
61571;BME280;47463;49.884;10.010;2023-03-25T10:00:01;101140;;;9.8;69
61571;BME280;47463;49.884;10.010;2023-03-25T10:05:37;101130;;;9.9;68
61571;BME280;47463;49.884;10.010;2023-03-25T10:10:02;101120;;;9.9;68
61571;BME280;47463;49.884;10.010;2023-03-25T10:15:04;101100;;;10;69
61571;BME280;47463;49.884;10.010;2023-03-25T10:20:02;101110;;;9.7;71
61571;BME280;47463;49.884;10.010;2023-03-25T10:25:01;101090;;;9.8;72
61571;BME280;47463;49.884;10.010;2023-03-25T10:30:03;101090;;;9.6;73
61571;BME280;47463;49.884;10.010;2023-03-25T10:35:02;101080;;;8.9;75
61571;BME280;47463;49.884;10.010;2023-03-25T10:40:09;101100;;;8.1;79
61571;BME280;47463;49.884;10.010;2023-03-25T10:45:01;101110;;;7.9;83
61571;BME280;47463;49.884;10.010;2023-03-25T10:50:01;101110;;;8.1;83
61571;BME280;47463;49.884;10.010;2023-03-25T10:55:01;101100;;;8.4;83
61571;BME280;47463;49.884;10.010;2023-03-25T11:00:03;101090;;;8.6;82
61571;BME280;47463;49.884;10.010;2023-03-25T11:05:02;101100;;;8.7;82
61571;BME280;47463;49.884;10.010;2023-03-25T11:10:09;101100;;;8.6;82
61571;BME280;47463;49.884;10.010;2023-03-25T11:15:01;101110;;;8.4;81
61571;BME280;47463;49.884;10.010;2023-03-25T11:20:03;101110;;;8.7;80
61571;BME280;47463;49.884;10.010;2023-03-25T11:25:02;101100;;;9.1;78
61571;BME280;47463;49.884;10.010;2023-03-25T11:30:02;101090;;;9.5;78
61571;BME280;47463;49.884;10.010;2023-03-25T11:35:01;101100;;;9.5;75
61571;BME280;47463;49.884;10.010;2023-03-25T11:40:03;101140;;;9.1;75
61571;BME280;47463;49.884;10.010;2023-03-25T11:45:01;101160;;;8.2;76
61571;BME280;47463;49.884;10.010;2023-03-25T11:50:01;101150;;;7.7;78
61571;BME280;47463;49.884;10.010;2023-03-25T11:55:01;101160;;;7.6;81
61571;BME280;47463;49.884;10.010;2023-03-25T12:00:02;101160;;;7.8;81
61571;BME280;47463;49.884;10.010;2023-03-25T12:05:02;101140;;;8.2;80
61571;BME280;47463;49.884;10.010;2023-03-25T12:10:03;101120;;;8.5;80
61571;BME280;47463;49.884;10.010;2023-03-25T12:15:04;101110;;;8.9;79
61571;BME280;47463;49.884;10.010;2023-03-25T12:20:02;101100;;;9.2;78
61571;BME280;47463;49.884;10.010;2023-03-25T12:25:03;101080;;;9;77
61571;BME280;47463;49.884;10.010;2023-03-25T12:30:02;101080;;;8.9;77
61571;BME280;47463;49.884;10.010;2023-03-25T12:35:04;101080;;;8.6;77
61571;BME280;47463;49.884;10.010;2023-03-25T12:40:05;101090;;;8.2;80
61571;BME280;47463;49.884;10.010;2023-03-25T12:45:04;101100;;;7.9;82
61571;BME280;47463;49.884;10.010;2023-03-25T12:50:03;101100;;;8.1;83
61571;BME280;47463;49.884;10.010;2023-03-25T12:55:02;101100;;;8.4;85
61571;BME280;47463;49.884;10.010;2023-03-25T13:00:02;101080;;;8.6;83
61571;BME280;47463;49.884;10.010;2023-03-25T13:05:03;101090;;;8.9;82
61571;BME280;47463;49.884;10.010;2023-03-25T13:10:02;101080;;;9.2;81
61571;BME280;47463;49.884;10.010;2023-03-25T13:15:02;101070;;;9.4;80
61571;BME280;47463;49.884;10.010;2023-03-25T13:20:01;101080;;;9.1;79
61571;BME280;47463;49.884;10.010;2023-03-25T13:25:01;101080;;;9.2;78
61571;BME280;47463;49.884;10.010;2023-03-25T13:30:01;101070;;;9.3;78
61571;BME280;47463;49.884;10.010;2023-03-25T13:35:01;101050;;;9.5;76
61571;BME280;47463;49.884;10.010;2023-03-25T13:40:05;101050;;;9.9;75
61571;BME280;47463;49.884;10.010;2023-03-25T13:45:01;101040;;;9.8;75
61571;BME280;47463;49.884;10.010;2023-03-25T13:50:01;101050;;;9.7;75
61571;BME280;47463;49.884;10.010;2023-03-25T13:55:02;101060;;;9.7;74
61571;BME280;47463;49.884;10.010;2023-03-25T14:00:05;101050;;;10.1;73
61571;BME280;47463;49.884;10.010;2023-03-25T14:05:07;101050;;;10.2;71
61571;BME280;47463;49.884;10.010;2023-03-25T14:10:08;101050;;;10.2;72
61571;BME280;47463;49.884;10.010;2023-03-25T14:15:02;101040;;;10.4;69
61571;BME280;47463;49.884;10.010;2023-03-25T14:20:01;101040;;;10.6;69
61571;BME280;47463;49.884;10.010;2023-03-25T14:25:01;101040;;;10.8;69
61571;BME280;47463;49.884;10.010;2023-03-25T14:30:01;101050;;;10.3;69
61571;BME280;47463;49.884;10.010;2023-03-25T14:36:05;101070;;;10.4;69
61571;BME280;47463;49.884;10.010;2023-03-25T14:40:01;101060;;;10.5;70
61571;BME280;47463;49.884;10.010;2023-03-25T14:46:12;101050;;;10.5;69
61571;BME280;47463;49.884;10.010;2023-03-25T14:50:03;101050;;;10.5;68
61571;BME280;47463;49.884;10.010;2023-03-25T14:55:04;101080;;;10.8;66
61571;BME280;47463;49.884;10.010;2023-03-25T15:00:01;101070;;;11;66
61571;BME280;47463;49.884;10.010;2023-03-25T15:05:01;101050;;;11;63
61571;BME280;47463;49.884;10.010;2023-03-25T15:10:01;101050;;;11.1;63
61571;BME280;47463;49.884;10.010;2023-03-25T15:15:04;101050;;;11.1;63
61571;BME280;47463;49.884;10.010;2023-03-25T15:20:11;101040;;;11;64
61571;BME280;47463;49.884;10.010;2023-03-25T15:25:01;101030;;;11.3;64
61571;BME280;47463;49.884;10.010;2023-03-25T15:30:02;101030;;;11.1;64
61571;BME280;47463;49.884;10.010;2023-03-25T15:35:06;101030;;;11.1;63
61571;BME280;47463;49.884;10.010;2023-03-25T15:40:05;101030;;;11.2;62
61571;BME280;47463;49.884;10.010;2023-03-25T15:45:06;101030;;;11.1;62
61571;BME280;47463;49.884;10.010;2023-03-25T15:50:05;101020;;;11.1;62
61571;BME280;47463;49.884;10.010;2023-03-25T15:55:01;101020;;;11.4;58
61571;BME280;47463;49.884;10.010;2023-03-25T16:00:02;101030;;;11.6;56
61571;BME280;47463;49.884;10.010;2023-03-25T16:05:01;101030;;;11.7;53
61571;BME280;47463;49.884;10.010;2023-03-25T16:10:04;101020;;;11.8;53
61571;BME280;47463;49.884;10.010;2023-03-25T16:15:03;101020;;;11.8;51
61571;BME280;47463;49.884;10.010;2023-03-25T16:20:01;101020;;;11.7;52
61571;BME280;47463;49.884;10.010;2023-03-25T16:25:02;101020;;;11.7;52
61571;BME280;47463;49.884;10.010;2023-03-25T16:30:01;101020;;;11.6;52
61571;BME280;47463;49.884;10.010;2023-03-25T16:35:01;101020;;;11.5;52
61571;BME280;47463;49.884;10.010;2023-03-25T16:40:03;101020;;;11.3;52
61571;BME280;47463;49.884;10.010;2023-03-25T16:45:01;101010;;;11.4;52
61571;BME280;47463;49.884;10.010;2023-03-25T16:50:01;101020;;;11.5;52
61571;BME280;47463;49.884;10.010;2023-03-25T16:55:09;101010;;;11.4;53
61571;BME280;47463;49.884;10.010;2023-03-25T17:00:03;101020;;;11.2;53
61571;BME280;47463;49.884;10.010;2023-03-25T17:05:11;101020;;;11;54
61571;BME280;47463;49.884;10.010;2023-03-25T17:10:01;101020;;;10.8;55
61571;BME280;47463;49.884;10.010;2023-03-25T17:15:02;101030;;;10.7;55
61571;BME280;47463;49.884;10.010;2023-03-25T17:20:01;101030;;;10.6;55
61571;BME280;47463;49.884;10.010;2023-03-25T17:25:11;101020;;;10.7;55
61571;BME280;47463;49.884;10.010;2023-03-25T17:30:13;101040;;;10.4;56
61571;BME280;47463;49.884;10.010;2023-03-25T17:35:02;101050;;;10.1;58
61571;BME280;47463;49.884;10.010;2023-03-25T17:40:02;101050;;;9.9;59
61571;BME280;47463;49.884;10.010;2023-03-25T17:45:01;101060;;;9.8;60
61571;BME280;47463;49.884;10.010;2023-03-25T17:50:02;101060;;;9.7;61
61571;BME280;47463;49.884;10.010;2023-03-25T17:55:01;101070;;;9.7;61
61571;BME280;47463;49.884;10.010;2023-03-25T18:00:01;101070;;;9.6;62
61571;BME280;47463;49.884;10.010;2023-03-25T18:05:01;101070;;;9.5;63
61571;BME280;47463;49.884;10.010;2023-03-25T18:10:01;101080;;;9.5;63
61571;BME280;47463;49.884;10.010;2023-03-25T18:15:01;101080;;;9.4;63
61571;BME280;47463;49.884;10.010;2023-03-25T18:20:01;101080;;;9.4;63
61571;BME280;47463;49.884;10.010;2023-03-25T18:25:01;101090;;;9.3;63
61571;BME280;47463;49.884;10.010;2023-03-25T18:30:01;101100;;;9.4;63
61571;BME280;47463;49.884;10.010;2023-03-25T18:35:01;101100;;;9.3;63
61571;BME280;47463;49.884;10.010;2023-03-25T18:40:01;101100;;;9.2;64
61571;BME280;47463;49.884;10.010;2023-03-25T18:45:01;101100;;;9;64
61571;BME280;47463;49.884;10.010;2023-03-25T18:50:01;101100;;;9.1;63
61571;BME280;47463;49.884;10.010;2023-03-25T18:55:01;101100;;;9.4;62
61571;BME280;47463;49.884;10.010;2023-03-25T19:00:01;101120;;;9.5;62
61571;BME280;47463;49.884;10.010;2023-03-25T19:05:01;101160;;;9.5;64
61571;BME280;47463;49.884;10.010;2023-03-25T19:10:01;101180;;;8.9;69
61571;BME280;47463;49.884;10.010;2023-03-25T19:15:01;101190;;;8.4;73
61571;BME280;47463;49.884;10.010;2023-03-25T19:20:01;101180;;;8.3;74
61571;BME280;47463;49.884;10.010;2023-03-25T19:25:01;101190;;;8.5;73
61571;BME280;47463;49.884;10.010;2023-03-25T19:30:01;101180;;;8.7;71
61571;BME280;47463;49.884;10.010;2023-03-25T19:35:01;101180;;;8.6;71
61571;BME280;47463;49.884;10.010;2023-03-25T19:40:01;101180;;;8.4;71
61571;BME280;47463;49.884;10.010;2023-03-25T19:45:01;101190;;;8.4;71
61571;BME280;47463;49.884;10.010;2023-03-25T19:50:01;101190;;;8.3;71
61571;BME280;47463;49.884;10.010;2023-03-25T19:55:01;101190;;;8.3;71
61571;BME280;47463;49.884;10.010;2023-03-25T20:00:01;101190;;;8.1;72
61571;BME280;47463;49.884;10.010;2023-03-25T20:05:01;101200;;;8.2;71
61571;BME280;47463;49.884;10.010;2023-03-25T20:10:01;101190;;;8.2;71
61571;BME280;47463;49.884;10.010;2023-03-25T20:15:01;101200;;;8;72
61571;BME280;47463;49.884;10.010;2023-03-25T20:20:01;101190;;;8.1;72
61571;BME280;47463;49.884;10.010;2023-03-25T20:25:01;101180;;;7.9;73
61571;BME280;47463;49.884;10.010;2023-03-25T20:30:01;101180;;;7.7;74
61571;BME280;47463;49.884;10.010;2023-03-25T20:35:01;101180;;;7.6;74
61571;BME280;47463;49.884;10.010;2023-03-25T20:40:01;101190;;;7.6;74
61571;BME280;47463;49.884;10.010;2023-03-25T20:45:01;101180;;;7.9;74
61571;BME280;47463;49.884;10.010;2023-03-25T20:50:01;101170;;;7.9;74
61571;BME280;47463;49.884;10.010;2023-03-25T20:55:01;101180;;;8;74
61571;BME280;47463;49.884;10.010;2023-03-25T21:00:01;101200;;;7.9;75
61571;BME280;47463;49.884;10.010;2023-03-25T21:05:01;101170;;;8;74
61571;BME280;47463;49.884;10.010;2023-03-25T21:10:01;101170;;;8;75
61571;BME280;47463;49.884;10.010;2023-03-25T21:15:01;101160;;;7.9;76
61571;BME280;47463;49.884;10.010;2023-03-25T21:20:01;101160;;;7.9;76
61571;BME280;47463;49.884;10.010;2023-03-25T21:25:01;101170;;;8;76
61571;BME280;47463;49.884;10.010;2023-03-25T21:30:01;101170;;;7.8;77
61571;BME280;47463;49.884;10.010;2023-03-25T21:35:01;101170;;;7.8;77
61571;BME280;47463;49.884;10.010;2023-03-25T21:40:01;101170;;;7.6;78
61571;BME280;47463;49.884;10.010;2023-03-25T21:45:01;101180;;;7.5;78
61571;BME280;47463;49.884;10.010;2023-03-25T21:50:01;101180;;;7.3;79
61571;BME280;47463;49.884;10.010;2023-03-25T21:55:01;101180;;;7.4;79
61571;BME280;47463;49.884;10.010;2023-03-25T22:00:01;101200;;;7.3;80
61571;BME280;47463;49.884;10.010;2023-03-25T22:05:01;101200;;;7.3;80
61571;BME280;47463;49.884;10.010;2023-03-25T22:10:01;101210;;;7.1;81
61571;BME280;47463;49.884;10.010;2023-03-25T22:15:01;101210;;;7.2;80
61571;BME280;47463;49.884;10.010;2023-03-25T22:20:01;101220;;;7.2;80
61571;BME280;47463;49.884;10.010;2023-03-25T22:25:01;101210;;;7.1;81
61571;BME280;47463;49.884;10.010;2023-03-25T22:30:01;101220;;;7.3;80
61571;BME280;47463;49.884;10.010;2023-03-25T22:35:01;101220;;;7.3;80
61571;BME280;47463;49.884;10.010;2023-03-25T22:40:01;101220;;;7.3;80
61571;BME280;47463;49.884;10.010;2023-03-25T22:45:01;101230;;;7.1;81
61571;BME280;47463;49.884;10.010;2023-03-25T22:50:01;101230;;;7.1;81
61571;BME280;47463;49.884;10.010;2023-03-25T22:55:01;101230;;;7.1;81
61571;BME280;47463;49.884;10.010;2023-03-25T23:00:01;101230;;;7.1;81
61571;BME280;47463;49.884;10.010;2023-03-25T23:05:01;101230;;;6.9;81
61571;BME280;47463;49.884;10.010;2023-03-25T23:10:01;101240;;;7;81
61571;BME280;47463;49.884;10.010;2023-03-25T23:15:01;101230;;;7;80
61571;BME280;47463;49.884;10.010;2023-03-25T23:20:01;101240;;;6.9;81
61571;BME280;47463;49.884;10.010;2023-03-25T23:25:01;101240;;;6.9;81
61571;BME280;47463;49.884;10.010;2023-03-25T23:30:01;101240;;;6.9;81
61571;BME280;47463;49.884;10.010;2023-03-25T23:35:01;101240;;;6.7;81
61571;BME280;47463;49.884;10.010;2023-03-25T23:40:01;101230;;;6.7;81
61571;BME280;47463;49.884;10.010;2023-03-25T23:45:01;101250;;;6.6;82
61571;BME280;47463;49.884;10.010;2023-03-25T23:50:01;101250;;;6.7;81
61571;BME280;47463;49.884;10.010;2023-03-25T23:55:01;101240;;;6.8;81
